sensor_id;sensor_type;location;lat;lon;timestamp;P1;durP1;ratioP1;P2;durP2;ratioP2
79375;SDS011;68846;53.150;18.136;2023-07-13T00:01:31;6.60;;;4.70;;
79375;SDS011;68846;53.150;18.136;2023-07-13T00:06:25;5.10;;;4.40;;
79375;SDS011;68846;53.150;18.136;2023-07-13T00:08:51;7.20;;;4.70;;
79375;SDS011;68846;53.150;18.136;2023-07-13T00:11:17;6.60;;;5.00;;
79375;SDS011;68846;53.150;18.136;2023-07-13T00:13:43;9.60;;;5.60;;
79375;SDS011;68846;53.150;18.136;2023-07-13T00:16:10;8.50;;;5.60;;
79375;SDS011;68846;53.150;18.136;2023-07-13T00:18:37;8.30;;;5.20;;
79375;SDS011;68846;53.150;18.136;2023-07-13T00:21:03;7.90;;;5.30;;
79375;SDS011;68846;53.150;18.136;2023-07-13T00:23:35;9.40;;;4.80;;
79375;SDS011;68846;53.150;18.136;2023-07-13T00:26:04;6.50;;;5.40;;
79375;SDS011;68846;53.150;18.136;2023-07-13T00:28:32;7.20;;;4.50;;
79375;SDS011;68846;53.150;18.136;2023-07-13T00:31:00;8.20;;;5.10;;
79375;SDS011;68846;53.150;18.136;2023-07-13T00:33:28;6.10;;;5.10;;
79375;SDS011;68846;53.150;18.136;2023-07-13T00:35:56;7.20;;;5.30;;
79375;SDS011;68846;53.150;18.136;2023-07-13T00:38:23;7.50;;;5.20;;
79375;SDS011;68846;53.150;18.136;2023-07-13T00:40:50;7.30;;;4.90;;
79375;SDS011;68846;53.150;18.136;2023-07-13T00:43:17;8.10;;;5.50;;
79375;SDS011;68846;53.150;18.136;2023-07-13T00:48:21;6.80;;;4.70;;
79375;SDS011;68846;53.150;18.136;2023-07-13T00:50:53;6.20;;;4.60;;
79375;SDS011;68846;53.150;18.136;2023-07-13T00:53:22;7.20;;;4.60;;
79375;SDS011;68846;53.150;18.136;2023-07-13T00:55:51;6.30;;;5.10;;
79375;SDS011;68846;53.150;18.136;2023-07-13T00:58:21;8.10;;;5.10;;
79375;SDS011;68846;53.150;18.136;2023-07-13T01:00:48;8.60;;;5.60;;
79375;SDS011;68846;53.150;18.136;2023-07-13T01:03:16;6.50;;;5.50;;
79375;SDS011;68846;53.150;18.136;2023-07-13T01:05:44;7.20;;;5.20;;
79375;SDS011;68846;53.150;18.136;2023-07-13T01:08:14;6.70;;;5.20;;
79375;SDS011;68846;53.150;18.136;2023-07-13T01:10:42;5.70;;;4.50;;
79375;SDS011;68846;53.150;18.136;2023-07-13T01:13:17;5.20;;;4.50;;
79375;SDS011;68846;53.150;18.136;2023-07-13T01:15:45;5.50;;;5.00;;
79375;SDS011;68846;53.150;18.136;2023-07-13T01:18:14;7.20;;;4.60;;
79375;SDS011;68846;53.150;18.136;2023-07-13T01:23:30;6.60;;;4.90;;
79375;SDS011;68846;53.150;18.136;2023-07-13T01:25:58;6.30;;;4.50;;
79375;SDS011;68846;53.150;18.136;2023-07-13T01:28:26;10.10;;;5.10;;
79375;SDS011;68846;53.150;18.136;2023-07-13T01:30:54;7.00;;;5.20;;
79375;SDS011;68846;53.150;18.136;2023-07-13T01:33:22;7.50;;;4.50;;
79375;SDS011;68846;53.150;18.136;2023-07-13T01:35:49;4.50;;;3.90;;
79375;SDS011;68846;53.150;18.136;2023-07-13T01:38:17;7.80;;;4.70;;
79375;SDS011;68846;53.150;18.136;2023-07-13T01:40:45;5.70;;;4.30;;
79375;SDS011;68846;53.150;18.136;2023-07-13T01:43:11;5.50;;;4.00;;
79375;SDS011;68846;53.150;18.136;2023-07-13T01:45:38;5.50;;;4.90;;
79375;SDS011;68846;53.150;18.136;2023-07-13T01:48:04;9.30;;;5.60;;
79375;SDS011;68846;53.150;18.136;2023-07-13T01:50:33;7.80;;;4.30;;
79375;SDS011;68846;53.150;18.136;2023-07-13T01:53:00;4.90;;;4.20;;
79375;SDS011;68846;53.150;18.136;2023-07-13T01:55:28;8.40;;;4.70;;
79375;SDS011;68846;53.150;18.136;2023-07-13T01:57:56;7.30;;;5.50;;
79375;SDS011;68846;53.150;18.136;2023-07-13T02:00:22;5.10;;;4.40;;
79375;SDS011;68846;53.150;18.136;2023-07-13T02:02:50;6.80;;;4.90;;
79375;SDS011;68846;53.150;18.136;2023-07-13T02:05:17;7.30;;;4.60;;
79375;SDS011;68846;53.150;18.136;2023-07-13T02:07:44;6.50;;;5.10;;
79375;SDS011;68846;53.150;18.136;2023-07-13T02:10:10;5.30;;;4.10;;
79375;SDS011;68846;53.150;18.136;2023-07-13T02:12:38;7.20;;;4.20;;
79375;SDS011;68846;53.150;18.136;2023-07-13T02:15:04;7.50;;;4.70;;
79375;SDS011;68846;53.150;18.136;2023-07-13T02:17:31;7.90;;;4.50;;
79375;SDS011;68846;53.150;18.136;2023-07-13T02:19:58;6.30;;;4.30;;
79375;SDS011;68846;53.150;18.136;2023-07-13T02:22:24;8.00;;;4.10;;
79375;SDS011;68846;53.150;18.136;2023-07-13T02:24:50;4.80;;;4.10;;
79375;SDS011;68846;53.150;18.136;2023-07-13T02:27:18;5.30;;;3.80;;
79375;SDS011;68846;53.150;18.136;2023-07-13T02:29:45;7.30;;;3.90;;
79375;SDS011;68846;53.150;18.136;2023-07-13T02:32:11;7.20;;;4.50;;
79375;SDS011;68846;53.150;18.136;2023-07-13T02:34:40;7.20;;;4.60;;
79375;SDS011;68846;53.150;18.136;2023-07-13T02:37:07;5.60;;;3.90;;
79375;SDS011;68846;53.150;18.136;2023-07-13T02:39:35;5.80;;;4.40;;
79375;SDS011;68846;53.150;18.136;2023-07-13T02:42:02;7.60;;;4.40;;
79375;SDS011;68846;53.150;18.136;2023-07-13T02:44:29;6.20;;;4.30;;
79375;SDS011;68846;53.150;18.136;2023-07-13T02:46:55;5.40;;;4.00;;
79375;SDS011;68846;53.150;18.136;2023-07-13T02:49:21;8.50;;;4.10;;
79375;SDS011;68846;53.150;18.136;2023-07-13T02:51:47;5.70;;;4.00;;
79375;SDS011;68846;53.150;18.136;2023-07-13T02:54:14;4.90;;;3.60;;
79375;SDS011;68846;53.150;18.136;2023-07-13T02:56:40;4.30;;;3.90;;
79375;SDS011;68846;53.150;18.136;2023-07-13T02:59:07;5.80;;;4.10;;
79375;SDS011;68846;53.150;18.136;2023-07-13T03:01:34;6.60;;;4.40;;
79375;SDS011;68846;53.150;18.136;2023-07-13T03:04:01;5.90;;;5.00;;
79375;SDS011;68846;53.150;18.136;2023-07-13T03:06:28;5.60;;;4.50;;
79375;SDS011;68846;53.150;18.136;2023-07-13T03:08:56;4.70;;;4.20;;
79375;SDS011;68846;53.150;18.136;2023-07-13T03:11:23;8.20;;;4.50;;
79375;SDS011;68846;53.150;18.136;2023-07-13T03:13:57;6.40;;;5.00;;
79375;SDS011;68846;53.150;18.136;2023-07-13T03:16:24;5.70;;;4.50;;
79375;SDS011;68846;53.150;18.136;2023-07-13T03:18:51;6.90;;;5.00;;
79375;SDS011;68846;53.150;18.136;2023-07-13T03:21:17;8.60;;;5.40;;
79375;SDS011;68846;53.150;18.136;2023-07-13T03:23:43;7.10;;;5.50;;
79375;SDS011;68846;53.150;18.136;2023-07-13T03:26:11;6.30;;;4.60;;
79375;SDS011;68846;53.150;18.136;2023-07-13T03:28:40;8.50;;;4.60;;
79375;SDS011;68846;53.150;18.136;2023-07-13T03:31:08;6.10;;;4.80;;
79375;SDS011;68846;53.150;18.136;2023-07-13T03:33:37;6.10;;;4.50;;
79375;SDS011;68846;53.150;18.136;2023-07-13T03:36:05;6.20;;;5.00;;
79375;SDS011;68846;53.150;18.136;2023-07-13T03:38:32;6.30;;;4.40;;
79375;SDS011;68846;53.150;18.136;2023-07-13T03:43:26;7.90;;;4.80;;
79375;SDS011;68846;53.150;18.136;2023-07-13T03:46:18;6.70;;;5.60;;
79375;SDS011;68846;53.150;18.136;2023-07-13T03:48:45;8.40;;;5.90;;
79375;SDS011;68846;53.150;18.136;2023-07-13T03:51:13;7.60;;;5.10;;
79375;SDS011;68846;53.150;18.136;2023-07-13T03:53:41;7.40;;;5.50;;
79375;SDS011;68846;53.150;18.136;2023-07-13T03:56:09;9.60;;;5.40;;
79375;SDS011;68846;53.150;18.136;2023-07-13T03:58:36;9.30;;;5.40;;
79375;SDS011;68846;53.150;18.136;2023-07-13T04:01:10;7.70;;;4.90;;
79375;SDS011;68846;53.150;18.136;2023-07-13T04:03:39;9.40;;;4.60;;
79375;SDS011;68846;53.150;18.136;2023-07-13T04:06:06;6.60;;;5.00;;
79375;SDS011;68846;53.150;18.136;2023-07-13T04:08:34;6.90;;;5.40;;
79375;SDS011;68846;53.150;18.136;2023-07-13T04:11:03;8.00;;;5.80;;
79375;SDS011;68846;53.150;18.136;2023-07-13T04:13:30;9.50;;;5.10;;
79375;SDS011;68846;53.150;18.136;2023-07-13T04:15:56;7.70;;;5.60;;
79375;SDS011;68846;53.150;18.136;2023-07-13T04:18:22;9.00;;;5.20;;
79375;SDS011;68846;53.150;18.136;2023-07-13T04:20:50;7.00;;;4.50;;
79375;SDS011;68846;53.150;18.136;2023-07-13T04:23:16;7.40;;;5.50;;
79375;SDS011;68846;53.150;18.136;2023-07-13T04:28:10;6.80;;;5.10;;
79375;SDS011;68846;53.150;18.136;2023-07-13T04:30:36;5.60;;;5.00;;
79375;SDS011;68846;53.150;18.136;2023-07-13T04:33:02;7.40;;;4.80;;
79375;SDS011;68846;53.150;18.136;2023-07-13T04:38:23;7.70;;;4.80;;
79375;SDS011;68846;53.150;18.136;2023-07-13T04:40:51;5.90;;;4.50;;
79375;SDS011;68846;53.150;18.136;2023-07-13T04:43:18;5.70;;;4.50;;
79375;SDS011;68846;53.150;18.136;2023-07-13T04:45:44;7.10;;;4.30;;
79375;SDS011;68846;53.150;18.136;2023-07-13T04:48:10;4.80;;;4.30;;
79375;SDS011;68846;53.150;18.136;2023-07-13T04:50:37;5.30;;;3.80;;
79375;SDS011;68846;53.150;18.136;2023-07-13T04:53:04;7.10;;;4.20;;
79375;SDS011;68846;53.150;18.136;2023-07-13T04:55:30;6.50;;;4.10;;
79375;SDS011;68846;53.150;18.136;2023-07-13T04:57:57;8.10;;;3.80;;
79375;SDS011;68846;53.150;18.136;2023-07-13T05:00:28;5.00;;;3.60;;
79375;SDS011;68846;53.150;18.136;2023-07-13T05:02:55;7.80;;;3.80;;
79375;SDS011;68846;53.150;18.136;2023-07-13T05:05:25;7.60;;;3.40;;
79375;SDS011;68846;53.150;18.136;2023-07-13T05:07:53;6.00;;;3.30;;
79375;SDS011;68846;53.150;18.136;2023-07-13T05:10:20;5.90;;;3.60;;
79375;SDS011;68846;53.150;18.136;2023-07-13T05:12:46;6.80;;;3.50;;
79375;SDS011;68846;53.150;18.136;2023-07-13T05:15:12;5.50;;;3.60;;
79375;SDS011;68846;53.150;18.136;2023-07-13T05:17:39;6.40;;;3.20;;
79375;SDS011;68846;53.150;18.136;2023-07-13T05:20:06;5.90;;;4.00;;
79375;SDS011;68846;53.150;18.136;2023-07-13T05:22:34;6.40;;;3.60;;
79375;SDS011;68846;53.150;18.136;2023-07-13T05:25:09;6.50;;;3.30;;
79375;SDS011;68846;53.150;18.136;2023-07-13T05:27:35;4.60;;;2.80;;
79375;SDS011;68846;53.150;18.136;2023-07-13T05:30:02;6.60;;;3.20;;
79375;SDS011;68846;53.150;18.136;2023-07-13T05:32:29;5.20;;;2.80;;
79375;SDS011;68846;53.150;18.136;2023-07-13T05:34:55;4.60;;;3.10;;
79375;SDS011;68846;53.150;18.136;2023-07-13T05:37:21;6.00;;;2.60;;
79375;SDS011;68846;53.150;18.136;2023-07-13T05:39:48;5.60;;;2.90;;
79375;SDS011;68846;53.150;18.136;2023-07-13T05:42:14;6.90;;;2.30;;
79375;SDS011;68846;53.150;18.136;2023-07-13T05:44:41;4.20;;;2.80;;
79375;SDS011;68846;53.150;18.136;2023-07-13T05:47:07;7.10;;;2.60;;
79375;SDS011;68846;53.150;18.136;2023-07-13T05:49:33;5.50;;;2.50;;
79375;SDS011;68846;53.150;18.136;2023-07-13T05:51:59;3.10;;;1.70;;
79375;SDS011;68846;53.150;18.136;2023-07-13T05:54:26;4.10;;;2.00;;
79375;SDS011;68846;53.150;18.136;2023-07-13T05:56:53;6.30;;;2.30;;
79375;SDS011;68846;53.150;18.136;2023-07-13T05:59:19;3.90;;;2.30;;
79375;SDS011;68846;53.150;18.136;2023-07-13T06:01:45;5.40;;;2.50;;
79375;SDS011;68846;53.150;18.136;2023-07-13T06:04:12;6.80;;;2.70;;
79375;SDS011;68846;53.150;18.136;2023-07-13T06:06:38;3.60;;;2.30;;
79375;SDS011;68846;53.150;18.136;2023-07-13T06:09:04;3.60;;;2.10;;
79375;SDS011;68846;53.150;18.136;2023-07-13T06:11:31;5.80;;;2.00;;
79375;SDS011;68846;53.150;18.136;2023-07-13T06:13:57;4.90;;;2.10;;
79375;SDS011;68846;53.150;18.136;2023-07-13T06:16:23;4.80;;;2.10;;
79375;SDS011;68846;53.150;18.136;2023-07-13T06:21:17;7.30;;;2.40;;
79375;SDS011;68846;53.150;18.136;2023-07-13T06:23:45;7.90;;;3.00;;
79375;SDS011;68846;53.150;18.136;2023-07-13T06:26:13;6.10;;;2.20;;
79375;SDS011;68846;53.150;18.136;2023-07-13T06:31:07;7.30;;;2.60;;
79375;SDS011;68846;53.150;18.136;2023-07-13T06:33:35;6.30;;;2.10;;
79375;SDS011;68846;53.150;18.136;2023-07-13T06:36:04;6.90;;;2.80;;
79375;SDS011;68846;53.150;18.136;2023-07-13T06:38:32;8.40;;;3.50;;
79375;SDS011;68846;53.150;18.136;2023-07-13T06:41:00;7.60;;;3.20;;
79375;SDS011;68846;53.150;18.136;2023-07-13T06:43:28;8.60;;;3.40;;
79375;SDS011;68846;53.150;18.136;2023-07-13T06:45:57;6.60;;;3.50;;
79375;SDS011;68846;53.150;18.136;2023-07-13T06:48:25;8.50;;;3.80;;
79375;SDS011;68846;53.150;18.136;2023-07-13T06:50:51;6.20;;;3.40;;
79375;SDS011;68846;53.150;18.136;2023-07-13T06:53:19;7.10;;;3.50;;
79375;SDS011;68846;53.150;18.136;2023-07-13T06:55:46;8.30;;;2.80;;
79375;SDS011;68846;53.150;18.136;2023-07-13T06:58:15;3.40;;;2.10;;
79375;SDS011;68846;53.150;18.136;2023-07-13T07:00:43;5.30;;;2.30;;
79375;SDS011;68846;53.150;18.136;2023-07-13T07:03:09;4.60;;;2.10;;
79375;SDS011;68846;53.150;18.136;2023-07-13T07:05:36;5.10;;;2.90;;
79375;SDS011;68846;53.150;18.136;2023-07-13T07:08:04;7.20;;;3.20;;
79375;SDS011;68846;53.150;18.136;2023-07-13T07:10:31;6.00;;;2.30;;
79375;SDS011;68846;53.150;18.136;2023-07-13T07:12:58;5.40;;;2.10;;
79375;SDS011;68846;53.150;18.136;2023-07-13T07:17:52;7.40;;;2.70;;
79375;SDS011;68846;53.150;18.136;2023-07-13T07:20:18;4.90;;;2.60;;
79375;SDS011;68846;53.150;18.136;2023-07-13T07:22:46;4.10;;;2.70;;
79375;SDS011;68846;53.150;18.136;2023-07-13T07:25:13;5.80;;;3.40;;
79375;SDS011;68846;53.150;18.136;2023-07-13T07:27:40;9.70;;;3.50;;
79375;SDS011;68846;53.150;18.136;2023-07-13T07:32:34;4.80;;;2.30;;
79375;SDS011;68846;53.150;18.136;2023-07-13T07:35:01;10.10;;;3.00;;
79375;SDS011;68846;53.150;18.136;2023-07-13T07:37:28;4.70;;;2.90;;
79375;SDS011;68846;53.150;18.136;2023-07-13T07:39:54;5.10;;;2.60;;
79375;SDS011;68846;53.150;18.136;2023-07-13T07:42:20;8.00;;;3.50;;
79375;SDS011;68846;53.150;18.136;2023-07-13T07:47:14;6.30;;;2.70;;
79375;SDS011;68846;53.150;18.136;2023-07-13T07:49:41;4.10;;;2.40;;
79375;SDS011;68846;53.150;18.136;2023-07-13T07:52:07;5.50;;;2.50;;
79375;SDS011;68846;53.150;18.136;2023-07-13T07:54:33;7.10;;;2.40;;
79375;SDS011;68846;53.150;18.136;2023-07-13T07:56:59;9.30;;;2.80;;
79375;SDS011;68846;53.150;18.136;2023-07-13T07:59:25;4.50;;;2.00;;
79375;SDS011;68846;53.150;18.136;2023-07-13T08:01:52;5.90;;;2.30;;
79375;SDS011;68846;53.150;18.136;2023-07-13T08:04:18;5.30;;;2.00;;
79375;SDS011;68846;53.150;18.136;2023-07-13T08:06:45;4.20;;;2.30;;
79375;SDS011;68846;53.150;18.136;2023-07-13T08:09:11;5.60;;;2.30;;
79375;SDS011;68846;53.150;18.136;2023-07-13T08:11:37;4.90;;;2.50;;
79375;SDS011;68846;53.150;18.136;2023-07-13T08:14:03;6.20;;;2.70;;
79375;SDS011;68846;53.150;18.136;2023-07-13T08:16:29;9.00;;;2.40;;
79375;SDS011;68846;53.150;18.136;2023-07-13T08:18:56;5.50;;;2.30;;
79375;SDS011;68846;53.150;18.136;2023-07-13T08:21:22;3.30;;;2.10;;
79375;SDS011;68846;53.150;18.136;2023-07-13T08:23:48;5.90;;;2.30;;
79375;SDS011;68846;53.150;18.136;2023-07-13T08:26:14;4.90;;;2.10;;
79375;SDS011;68846;53.150;18.136;2023-07-13T08:28:41;4.00;;;1.90;;
79375;SDS011;68846;53.150;18.136;2023-07-13T08:33:34;5.60;;;2.30;;
79375;SDS011;68846;53.150;18.136;2023-07-13T08:36:02;5.10;;;2.50;;
79375;SDS011;68846;53.150;18.136;2023-07-13T08:38:29;4.10;;;2.00;;
79375;SDS011;68846;53.150;18.136;2023-07-13T08:40:56;5.20;;;2.40;;
79375;SDS011;68846;53.150;18.136;2023-07-13T08:43:26;4.50;;;2.50;;
79375;SDS011;68846;53.150;18.136;2023-07-13T08:46:09;4.40;;;2.10;;
79375;SDS011;68846;53.150;18.136;2023-07-13T08:51:58;8.90;;;2.30;;
79375;SDS011;68846;53.150;18.136;2023-07-13T08:57:10;5.20;;;2.20;;
79375;SDS011;68846;53.150;18.136;2023-07-13T08:59:39;4.30;;;2.30;;
79375;SDS011;68846;53.150;18.136;2023-07-13T09:08:04;3.60;;;2.20;;
79375;SDS011;68846;53.150;18.136;2023-07-13T09:10:39;4.70;;;2.70;;
79375;SDS011;68846;53.150;18.136;2023-07-13T09:16:05;6.20;;;2.30;;
79375;SDS011;68846;53.150;18.136;2023-07-13T09:21:11;5.20;;;2.00;;
79375;SDS011;68846;53.150;18.136;2023-07-13T09:23:41;2.80;;;1.60;;
79375;SDS011;68846;53.150;18.136;2023-07-13T09:26:22;2.80;;;1.90;;
79375;SDS011;68846;53.150;18.136;2023-07-13T09:29:23;5.50;;;1.70;;
79375;SDS011;68846;53.150;18.136;2023-07-13T09:31:53;4.70;;;1.90;;
79375;SDS011;68846;53.150;18.136;2023-07-13T09:34:25;4.70;;;2.20;;
79375;SDS011;68846;53.150;18.136;2023-07-13T09:36:51;5.40;;;2.10;;
79375;SDS011;68846;53.150;18.136;2023-07-13T09:39:35;7.60;;;1.80;;
79375;SDS011;68846;53.150;18.136;2023-07-13T09:47:17;4.30;;;1.60;;
79375;SDS011;68846;53.150;18.136;2023-07-13T09:49:48;5.20;;;1.70;;
79375;SDS011;68846;53.150;18.136;2023-07-13T09:52:21;5.00;;;1.50;;
79375;SDS011;68846;53.150;18.136;2023-07-13T09:54:48;9.70;;;1.80;;
79375;SDS011;68846;53.150;18.136;2023-07-13T09:57:17;2.70;;;1.40;;
79375;SDS011;68846;53.150;18.136;2023-07-13T09:59:46;4.50;;;1.90;;
79375;SDS011;68846;53.150;18.136;2023-07-13T10:02:30;2.90;;;1.70;;
79375;SDS011;68846;53.150;18.136;2023-07-13T10:05:02;3.90;;;1.70;;
79375;SDS011;68846;53.150;18.136;2023-07-13T10:07:37;3.60;;;1.90;;
79375;SDS011;68846;53.150;18.136;2023-07-13T10:10:12;4.30;;;1.90;;
79375;SDS011;68846;53.150;18.136;2023-07-13T10:12:41;7.10;;;1.60;;
79375;SDS011;68846;53.150;18.136;2023-07-13T10:15:09;5.10;;;1.60;;
79375;SDS011;68846;53.150;18.136;2023-07-13T10:17:41;2.50;;;1.40;;
79375;SDS011;68846;53.150;18.136;2023-07-13T10:20:09;4.80;;;1.70;;
79375;SDS011;68846;53.150;18.136;2023-07-13T10:22:45;4.10;;;1.90;;
79375;SDS011;68846;53.150;18.136;2023-07-13T10:25:17;4.00;;;1.60;;
79375;SDS011;68846;53.150;18.136;2023-07-13T10:27:46;4.10;;;1.90;;
79375;SDS011;68846;53.150;18.136;2023-07-13T10:30:23;5.80;;;2.30;;
79375;SDS011;68846;53.150;18.136;2023-07-13T10:32:54;3.20;;;2.10;;
79375;SDS011;68846;53.150;18.136;2023-07-13T10:35:23;4.60;;;2.20;;
79375;SDS011;68846;53.150;18.136;2023-07-13T10:38:07;5.10;;;1.90;;
79375;SDS011;68846;53.150;18.136;2023-07-13T10:41:23;6.70;;;2.60;;
79375;SDS011;68846;53.150;18.136;2023-07-13T10:43:39;4.20;;;2.30;;
79375;SDS011;68846;53.150;18.136;2023-07-13T10:46:15;5.00;;;2.50;;
79375;SDS011;68846;53.150;18.136;2023-07-13T10:48:45;5.10;;;2.30;;
79375;SDS011;68846;53.150;18.136;2023-07-13T10:51:16;7.60;;;2.40;;
79375;SDS011;68846;53.150;18.136;2023-07-13T10:53:46;4.40;;;2.20;;
79375;SDS011;68846;53.150;18.136;2023-07-13T10:56:19;5.70;;;2.40;;
79375;SDS011;68846;53.150;18.136;2023-07-13T10:59:01;5.30;;;2.20;;
79375;SDS011;68846;53.150;18.136;2023-07-13T11:01:39;3.00;;;1.60;;
79375;SDS011;68846;53.150;18.136;2023-07-13T11:04:08;5.00;;;2.30;;
79375;SDS011;68846;53.150;18.136;2023-07-13T11:06:38;5.50;;;1.90;;
79375;SDS011;68846;53.150;18.136;2023-07-13T11:09:31;4.50;;;2.80;;
79375;SDS011;68846;53.150;18.136;2023-07-13T11:18:12;5.60;;;2.30;;
79375;SDS011;68846;53.150;18.136;2023-07-13T11:22:45;4.60;;;2.10;;
79375;SDS011;68846;53.150;18.136;2023-07-13T11:25:41;4.20;;;2.00;;
79375;SDS011;68846;53.150;18.136;2023-07-13T11:30:43;4.80;;;2.30;;
79375;SDS011;68846;53.150;18.136;2023-07-13T11:35:49;4.90;;;2.40;;
79375;SDS011;68846;53.150;18.136;2023-07-13T11:38:19;4.50;;;2.30;;
79375;SDS011;68846;53.150;18.136;2023-07-13T11:40:48;4.00;;;2.30;;
79375;SDS011;68846;53.150;18.136;2023-07-13T11:43:19;3.80;;;2.40;;
79375;SDS011;68846;53.150;18.136;2023-07-13T11:45:49;5.70;;;2.50;;
79375;SDS011;68846;53.150;18.136;2023-07-13T11:48:27;4.90;;;2.50;;
79375;SDS011;68846;53.150;18.136;2023-07-13T11:50:58;3.60;;;2.40;;
79375;SDS011;68846;53.150;18.136;2023-07-13T11:53:34;5.60;;;2.40;;
79375;SDS011;68846;53.150;18.136;2023-07-13T11:56:06;5.20;;;2.60;;
79375;SDS011;68846;53.150;18.136;2023-07-13T11:58:34;6.10;;;2.40;;
79375;SDS011;68846;53.150;18.136;2023-07-13T12:01:01;4.80;;;2.20;;
79375;SDS011;68846;53.150;18.136;2023-07-13T12:03:30;4.80;;;2.20;;
79375;SDS011;68846;53.150;18.136;2023-07-13T12:06:05;4.30;;;2.10;;
79375;SDS011;68846;53.150;18.136;2023-07-13T12:08:45;3.50;;;2.20;;
79375;SDS011;68846;53.150;18.136;2023-07-13T12:11:17;6.90;;;2.70;;
79375;SDS011;68846;53.150;18.136;2023-07-13T12:13:44;4.00;;;2.20;;
79375;SDS011;68846;53.150;18.136;2023-07-13T12:16:15;4.40;;;2.50;;
79375;SDS011;68846;53.150;18.136;2023-07-13T12:18:53;5.30;;;2.40;;
79375;SDS011;68846;53.150;18.136;2023-07-13T12:21:22;2.80;;;2.00;;
79375;SDS011;68846;53.150;18.136;2023-07-13T12:23:55;5.00;;;2.20;;
79375;SDS011;68846;53.150;18.136;2023-07-13T12:26:21;5.10;;;2.20;;
79375;SDS011;68846;53.150;18.136;2023-07-13T12:31:30;3.90;;;2.00;;
79375;SDS011;68846;53.150;18.136;2023-07-13T12:34:06;5.50;;;2.20;;
79375;SDS011;68846;53.150;18.136;2023-07-13T12:36:35;7.70;;;2.10;;
79375;SDS011;68846;53.150;18.136;2023-07-13T12:39:24;4.10;;;2.20;;
79375;SDS011;68846;53.150;18.136;2023-07-13T12:41:52;4.60;;;1.80;;
79375;SDS011;68846;53.150;18.136;2023-07-13T12:44:25;5.50;;;2.20;;
79375;SDS011;68846;53.150;18.136;2023-07-13T12:47:04;5.10;;;2.30;;
79375;SDS011;68846;53.150;18.136;2023-07-13T12:49:40;5.00;;;2.20;;
79375;SDS011;68846;53.150;18.136;2023-07-13T12:52:36;8.00;;;2.10;;
79375;SDS011;68846;53.150;18.136;2023-07-13T12:55:06;4.00;;;1.60;;
79375;SDS011;68846;53.150;18.136;2023-07-13T12:57:45;2.40;;;1.80;;
79375;SDS011;68846;53.150;18.136;2023-07-13T13:02:49;6.50;;;1.80;;
79375;SDS011;68846;53.150;18.136;2023-07-13T13:05:16;2.00;;;1.40;;
79375;SDS011;68846;53.150;18.136;2023-07-13T13:07:43;3.60;;;1.90;;
79375;SDS011;68846;53.150;18.136;2023-07-13T13:10:12;6.40;;;2.30;;
79375;SDS011;68846;53.150;18.136;2023-07-13T13:12:40;3.90;;;1.70;;
79375;SDS011;68846;53.150;18.136;2023-07-13T13:15:10;3.00;;;1.70;;
79375;SDS011;68846;53.150;18.136;2023-07-13T13:17:39;2.00;;;1.60;;
79375;SDS011;68846;53.150;18.136;2023-07-13T13:20:15;2.80;;;1.80;;
79375;SDS011;68846;53.150;18.136;2023-07-13T13:22:44;2.80;;;1.50;;
79375;SDS011;68846;53.150;18.136;2023-07-13T13:25:10;3.50;;;2.10;;
79375;SDS011;68846;53.150;18.136;2023-07-13T13:27:37;3.30;;;1.90;;
79375;SDS011;68846;53.150;18.136;2023-07-13T13:30:10;5.90;;;2.10;;
79375;SDS011;68846;53.150;18.136;2023-07-13T13:32:42;6.10;;;2.10;;
79375;SDS011;68846;53.150;18.136;2023-07-13T13:35:17;5.80;;;2.10;;
79375;SDS011;68846;53.150;18.136;2023-07-13T13:37:46;4.70;;;2.40;;
79375;SDS011;68846;53.150;18.136;2023-07-13T13:40:19;8.80;;;2.50;;
79375;SDS011;68846;53.150;18.136;2023-07-13T13:42:48;6.50;;;2.40;;
79375;SDS011;68846;53.150;18.136;2023-07-13T13:45:15;4.40;;;2.00;;
79375;SDS011;68846;53.150;18.136;2023-07-13T13:47:43;7.30;;;2.40;;
79375;SDS011;68846;53.150;18.136;2023-07-13T13:50:17;6.10;;;2.80;;
79375;SDS011;68846;53.150;18.136;2023-07-13T13:52:46;5.50;;;2.50;;
79375;SDS011;68846;53.150;18.136;2023-07-13T13:55:17;4.90;;;2.80;;
79375;SDS011;68846;53.150;18.136;2023-07-13T13:57:46;6.70;;;2.80;;
79375;SDS011;68846;53.150;18.136;2023-07-13T14:00:14;2.90;;;2.10;;
79375;SDS011;68846;53.150;18.136;2023-07-13T14:02:44;4.10;;;2.40;;
79375;SDS011;68846;53.150;18.136;2023-07-13T14:05:22;5.10;;;2.30;;
79375;SDS011;68846;53.150;18.136;2023-07-13T14:07:52;7.00;;;1.80;;
79375;SDS011;68846;53.150;18.136;2023-07-13T14:10:19;3.70;;;2.00;;
79375;SDS011;68846;53.150;18.136;2023-07-13T14:12:47;6.30;;;2.20;;
79375;SDS011;68846;53.150;18.136;2023-07-13T14:15:21;3.40;;;1.80;;
79375;SDS011;68846;53.150;18.136;2023-07-13T14:17:49;4.00;;;2.20;;
79375;SDS011;68846;53.150;18.136;2023-07-13T14:20:16;5.50;;;1.90;;
79375;SDS011;68846;53.150;18.136;2023-07-13T14:22:44;4.10;;;2.20;;
79375;SDS011;68846;53.150;18.136;2023-07-13T14:25:12;3.70;;;2.00;;
79375;SDS011;68846;53.150;18.136;2023-07-13T14:27:38;3.50;;;2.00;;
79375;SDS011;68846;53.150;18.136;2023-07-13T14:30:12;4.20;;;2.00;;
79375;SDS011;68846;53.150;18.136;2023-07-13T14:32:48;2.70;;;1.80;;
79375;SDS011;68846;53.150;18.136;2023-07-13T14:35:18;6.10;;;2.20;;
79375;SDS011;68846;53.150;18.136;2023-07-13T14:37:49;5.70;;;2.20;;
79375;SDS011;68846;53.150;18.136;2023-07-13T14:40:17;3.60;;;2.30;;
79375;SDS011;68846;53.150;18.136;2023-07-13T14:42:47;3.40;;;1.80;;
79375;SDS011;68846;53.150;18.136;2023-07-13T14:45:14;3.40;;;2.00;;
79375;SDS011;68846;53.150;18.136;2023-07-13T14:47:42;3.20;;;2.10;;
79375;SDS011;68846;53.150;18.136;2023-07-13T14:50:20;2.80;;;2.10;;
79375;SDS011;68846;53.150;18.136;2023-07-13T14:52:50;4.80;;;2.00;;
79375;SDS011;68846;53.150;18.136;2023-07-13T14:55:17;3.40;;;2.10;;
79375;SDS011;68846;53.150;18.136;2023-07-13T14:57:44;3.20;;;2.10;;
79375;SDS011;68846;53.150;18.136;2023-07-13T15:02:43;3.10;;;1.80;;
79375;SDS011;68846;53.150;18.136;2023-07-13T15:05:14;4.90;;;1.70;;
79375;SDS011;68846;53.150;18.136;2023-07-13T15:07:43;3.10;;;1.70;;
79375;SDS011;68846;53.150;18.136;2023-07-13T15:10:20;2.50;;;1.60;;
79375;SDS011;68846;53.150;18.136;2023-07-13T15:12:51;3.10;;;1.60;;
79375;SDS011;68846;53.150;18.136;2023-07-13T15:15:18;4.00;;;1.80;;
79375;SDS011;68846;53.150;18.136;2023-07-13T15:17:46;5.30;;;1.60;;
79375;SDS011;68846;53.150;18.136;2023-07-13T15:20:27;3.30;;;1.20;;
79375;SDS011;68846;53.150;18.136;2023-07-13T15:22:55;2.40;;;1.10;;
79375;SDS011;68846;53.150;18.136;2023-07-13T15:25:23;3.60;;;1.20;;
79375;SDS011;68846;53.150;18.136;2023-07-13T15:27:54;2.40;;;1.00;;
79375;SDS011;68846;53.150;18.136;2023-07-13T15:30:21;1.80;;;1.00;;
79375;SDS011;68846;53.150;18.136;2023-07-13T15:35:19;2.20;;;0.90;;
79375;SDS011;68846;53.150;18.136;2023-07-13T15:37:48;2.90;;;1.20;;
79375;SDS011;68846;53.150;18.136;2023-07-13T15:40:16;3.30;;;1.10;;
79375;SDS011;68846;53.150;18.136;2023-07-13T15:42:43;2.60;;;1.10;;
79375;SDS011;68846;53.150;18.136;2023-07-13T15:45:20;2.30;;;0.90;;
79375;SDS011;68846;53.150;18.136;2023-07-13T15:47:48;1.40;;;0.90;;
79375;SDS011;68846;53.150;18.136;2023-07-13T15:50:17;1.90;;;1.10;;
79375;SDS011;68846;53.150;18.136;2023-07-13T15:52:51;1.40;;;0.90;;
79375;SDS011;68846;53.150;18.136;2023-07-13T15:55:19;1.80;;;0.80;;
79375;SDS011;68846;53.150;18.136;2023-07-13T15:57:55;1.70;;;1.10;;
79375;SDS011;68846;53.150;18.136;2023-07-13T16:00:23;2.40;;;1.20;;
79375;SDS011;68846;53.150;18.136;2023-07-13T16:02:51;2.20;;;1.00;;